Time;durP1;ratioP1;P1;durP2;ratioP2;P2;SDS_P1;SDS_P2;PMS_P1;PMS_P2;Temp;Humidity;BMP_temperature;BMP_pressure;BME280_temperature;BME280_humidity;BME280_pressure;Samples;Min_cycle;Max_cycle;Signal;HPM_P1;HPM_P2
2022/09/19 00:00:04;;;;;;;2.98;1.70;;;;;;;7.27;68.46;99872.16;1577686;89;21097;-79
2022/09/19 00:02:49;;;;;;;;;;;;;;;7.21;68.48;99882.53;1598619;89;21151;-79
2022/09/19 00:05:41;;;;;;;3.87;1.65;;;;;;;7.18;68.79;99879.15;1581841;89;20486;-79
2022/09/19 00:08:26;;;;;;;2.90;1.50;;;;;;;7.15;68.52;99877.91;1580844;89;21353;-78
2022/09/19 00:11:14;;;;;;;2.42;1.40;;;;;;;7.11;68.56;99879.67;1578312;89;21129;-78
2022/09/19 00:14:00;;;;;;;2.65;1.32;;;;;;;7.09;68.64;99875.42;1581434;89;21116;-77
2022/09/19 00:16:47;;;;;;;;;;;;;;;7.09;68.71;99879.27;1582582;89;21061;-77
2022/09/19 00:19:32;;;;;;;2.80;1.30;;;;;;;7.10;69.07;99872.83;1590188;89;20206;-77
2022/09/19 00:22:17;;;;;;;3.25;1.72;;;;;;;7.11;68.85;99873.68;1573513;89;21016;-77
2022/09/19 00:25:02;;;;;;;2.35;1.30;;;;;;;7.11;68.78;99873.68;1593215;88;21057;-77
2022/09/19 00:27:47;;;;;;;3.17;1.32;;;;;;;7.12;68.85;99876.23;1588710;89;21553;-77
2022/09/19 00:30:38;;;;;;;2.95;1.10;;;;;;;7.13;68.86;99872.78;1580221;89;21072;-77
2022/09/19 00:33:29;;;;;;;2.00;1.27;;;;;;;7.15;68.91;99874.90;1588232;89;20953;-77
2022/09/19 00:36:15;;;;;;;2.35;1.70;;;;;;;7.19;68.96;99876.99;1583818;89;20956;-77
2022/09/19 00:39:01;;;;;;;1.30;0.75;;;;;;;7.19;68.92;99873.98;1569056;89;21445;-77
2022/09/19 00:41:47;;;;;;;1.87;0.88;;;;;;;7.19;68.91;99876.56;1580577;89;21494;-77
2022/09/19 00:44:37;;;;;;;1.72;1.10;;;;;;;7.19;68.96;99876.99;1582528;89;20990;-77
2022/09/19 00:47:33;;;;;;;1.40;0.98;;;;;;;7.18;68.99;99879.15;1577032;89;21431;-77
2022/09/19 00:50:22;;;;;;;3.98;1.15;;;;;;;7.16;69.04;99877.88;1582117;89;21385;-78
2022/09/19 00:53:12;;;;;;;3.25;1.20;;;;;;;7.16;69.05;99881.74;1586029;88;20998;-78
2022/09/19 00:55:57;;;;;;;4.22;1.10;;;;;;;7.17;69.17;99877.02;1556337;91;21070;-78
2022/09/19 00:58:44;;;;;;;1.30;0.95;;;;;;;7.21;69.20;99880.39;1554647;91;20989;-78
2022/09/19 01:01:30;;;;;;;1.75;0.90;;;;;;;7.22;69.24;99879.09;1567518;91;20944;-78
2022/09/19 01:04:19;;;;;;;1.85;0.98;;;;;;;7.25;69.27;99879.48;1600416;89;20937;-78
2022/09/19 01:07:33;;;;;;;2.42;1.15;;;;;;;7.27;69.30;99881.16;1592832;89;20941;-78
2022/09/19 01:10:45;;;;;;;2.25;1.00;;;;;;;7.29;69.31;99879.38;1593072;89;20982;-77
2022/09/19 01:13:41;;;;;;;3.27;1.17;;;;;;;7.30;69.36;99887.52;1571998;89;21056;-77
2022/09/19 01:16:42;;;;;;;4.78;1.05;;;;;;;7.33;69.40;99887.05;1585824;89;20997;-77
2022/09/19 01:20:12;;;;;;;1.57;0.90;;;;;;;7.33;69.46;99880.63;1590042;89;20953;-77
2022/09/19 01:23:25;;;;;;;4.20;1.10;;;;;;;7.35;69.48;99880.16;1580601;88;20957;-77
2022/09/19 01:26:58;;;;;;;1.62;1.07;;;;;;;7.35;69.54;99887.45;1599714;89;20950;-78
2022/09/19 01:29:53;;;;;;;1.85;1.10;;;;;;;7.41;69.58;99890.36;1577994;89;20985;-78
2022/09/19 01:32:55;;;;;;;3.93;1.33;;;;;;;7.43;69.63;99896.34;1576219;89;20948;-78
2022/09/19 01:35:42;;;;;;;2.77;0.90;;;;;;;7.41;69.66;99892.94;1585035;89;21250;-78
2022/09/19 01:38:28;;;;;;;2.30;1.30;;;;;;;7.40;69.69;99898.95;1585796;89;21049;-78
2022/09/19 01:41:13;;;;;;;;;;;;;;;7.41;69.78;99892.94;1566650;91;21013;-78
2022/09/19 01:44:08;;;;;;;3.02;1.07;;;;;;;7.43;70.15;99892.48;1586770;88;20456;-78
2022/09/19 01:47:25;;;;;;;1.27;0.90;;;;;;;7.44;69.85;99895.47;1581204;89;21569;-78
2022/09/19 01:50:31;;;;;;;2.05;0.98;;;;;;;7.45;69.85;99898.02;1596576;89;20970;-78
2022/09/19 01:53:46;;;;;;;2.80;1.30;;;;;;;7.45;69.89;99902.30;1589127;88;20960;-78
2022/09/19 01:57:01;;;;;;;3.52;1.20;;;;;;;7.45;69.95;99898.02;1588573;89;21817;-78
2022/09/19 02:00:00;;;;;;;1.65;0.90;;;;;;;7.43;69.98;99904.91;1580994;89;20946;-78
2022/09/19 02:03:08;;;;;;;3.30;1.17;;;;;;;7.45;70.07;99899.30;1593496;89;20982;-78
2022/09/19 02:06:01;;;;;;;3.65;1.00;;;;;;;7.47;70.07;99900.13;1583059;89;20947;-78
2022/09/19 02:08:59;;;;;;;2.80;1.17;;;;;;;7.47;70.14;99896.70;1592299;89;21004;-78
2022/09/19 02:11:44;;;;;;;3.72;1.37;;;;;;;7.48;70.16;99889.41;1583441;89;20970;-78
2022/09/19 02:14:34;;;;;;;3.12;1.62;;;;;;;7.46;70.17;99899.72;1581827;89;20964;-78
2022/09/19 02:17:44;;;;;;;1.82;1.52;;;;;;;7.46;70.26;99900.15;1584449;89;21450;-78
2022/09/19 02:20:33;;;;;;;4.22;2.20;;;;;;;7.45;70.24;99899.73;1575153;89;20929;-78
2022/09/19 02:23:23;;;;;;;3.80;1.60;;;;;;;7.46;70.37;99904.01;1586611;88;21009;-78
2022/09/19 02:26:09;;;;;;;2.47;1.85;;;;;;;7.47;70.39;99907.84;1587246;89;20989;-78
2022/09/19 02:28:55;;;;;;;;;;;;;;;7.48;70.52;99906.97;1588914;89;20949;-78
2022/09/19 02:31:40;;;;;;;4.75;2.10;;;;;;;7.50;70.97;99910.37;1593269;89;25093;-78
2022/09/19 02:34:25;;;;;;;3.98;1.98;;;;;;;7.51;70.65;99908.21;1579867;89;20934;-78
2022/09/19 02:37:35;;;;;;;2.37;2.12;;;;;;;7.54;70.62;99908.17;1586830;89;21496;-78
2022/09/19 02:40:29;;;;;;;2.55;2.20;;;;;;;7.56;70.69;99903.85;1560864;89;21013;-78
2022/09/19 02:43:30;;;;;;;3.50;2.10;;;;;;;7.60;70.79;99909.80;1582142;89;20953;-78
2022/09/19 02:46:30;;;;;;;3.60;2.22;;;;;;;7.66;70.90;99911.43;1584905;89;21649;-78
2022/09/19 02:49:18;;;;;;;3.37;2.22;;;;;;;7.67;70.88;99911.84;1581151;89;21569;-78
2022/09/19 02:52:10;;;;;;;3.37;2.30;;;;;;;7.66;71.00;99906.28;1574916;89;21016;-78
2022/09/19 02:55:02;;;;;;;2.85;2.02;;;;;;;7.72;71.03;99922.91;1584263;88;21602;-78
2022/09/19 02:57:51;;;;;;;5.60;2.52;;;;;;;7.76;71.06;99918.98;1575208;89;21118;-78
2022/09/19 03:00:38;;;;;;;2.58;2.10;;;;;;;7.79;71.12;99921.95;1577582;89;21053;-78
2022/09/19 03:07:14;;;;;;;3.25;2.12;;;;;;;7.86;71.19;99920.51;1587096;89;21412;-78
2022/09/19 03:10:04;;;;;;;3.85;2.70;;;;;;;7.89;71.16;99919.17;1575432;89;21145;-78
2022/09/19 03:13:00;;;;;;;6.92;2.60;;;;;;;7.91;71.33;99917.42;1586128;89;21064;-78
2022/09/19 03:15:49;;;;;;;;;;;;;;;7.94;71.33;99923.81;1584900;89;21063;-78
2022/09/19 03:18:37;;;;;;;3.15;2.75;;;;;;;7.97;71.78;99919.05;1558217;91;20220;-78
2022/09/19 03:21:26;;;;;;;4.58;3.12;;;;;;;7.99;71.43;99922.45;1620769;86;21124;-78
2022/09/19 03:24:12;;;;;;;4.40;2.58;;;;;;;8.02;71.49;99924.13;1634307;86;21080;-78
2022/09/19 03:26:57;;;;;;;4.92;3.05;;;;;;;8.07;71.49;99923.61;1597214;89;21293;-78
2022/09/19 03:29:42;;;;;;;4.15;2.92;;;;;;;8.09;71.48;99920.13;1585051;88;22307;-78
2022/09/19 03:32:27;;;;;;;4.00;2.77;;;;;;;8.11;71.51;99921.39;1632777;87;21096;-78
2022/09/19 03:35:14;;;;;;;5.60;3.35;;;;;;;8.15;71.55;99925.62;1619638;87;21346;-78
2022/09/19 03:38:01;;;;;;;;;;;;;;;8.17;71.56;99923.87;1634070;87;21084;-78
2022/09/19 03:40:45;;;;;;;3.80;3.30;;;;;;;8.17;71.94;99927.73;1623653;87;20214;-78
2022/09/19 03:43:30;;;;;;;5.08;3.42;;;;;;;8.17;71.63;99925.16;1609599;87;21036;-78
2022/09/19 03:46:23;;;;;;;5.17;3.20;;;;;;;8.17;71.65;99927.73;1621572;87;21481;-78
2022/09/19 03:49:05;;;;;;;7.28;3.83;;;;;;;8.20;71.70;99928.53;1625475;85;21125;-78
2022/09/19 03:51:51;;;;;;;5.50;3.45;;;;;;;8.25;71.75;99929.73;1632952;84;21683;-78
2022/09/19 03:54:36;;;;;;;4.45;3.55;;;;;;;8.27;71.75;99928.84;1632991;86;21064;-78
2022/09/19 03:57:21;;;;;;;5.30;3.77;;;;;;;8.27;71.75;99921.55;1621709;87;21127;-78
2022/09/19 04:00:08;;;;;;;4.95;4.05;;;;;;;8.29;71.84;99926.23;1622765;87;21088;-78
2022/09/19 04:02:53;;;;;;;3.83;3.40;;;;;;;8.28;71.83;99921.52;1608060;87;21852;-78
2022/09/19 04:05:38;;;;;;;4.62;3.80;;;;;;;8.28;71.85;99927.11;1623075;87;20965;-80
2022/09/19 04:08:23;;;;;;;5.85;4.45;;;;;;;8.24;71.88;99921.16;1623089;87;20954;-79
2022/09/19 04:11:11;;;;;;;6.42;3.83;;;;;;;8.25;71.97;99924.14;1634917;87;20977;-79
2022/09/19 04:13:56;;;;;;;8.60;3.95;;;;;;;8.27;71.99;99929.27;1612868;87;21552;-79
2022/09/19 04:16:41;;;;;;;4.65;4.10;;;;;;;8.28;72.01;99934.40;1632608;87;21052;-79
2022/09/19 04:19:28;;;;;;;5.30;4.15;;;;;;;8.30;72.05;99932.64;1629971;85;22219;-80
2022/09/19 04:22:12;;;;;;;;;;;;;;;8.33;72.06;99932.18;1634864;85;21060;-80
2022/09/19 04:24:58;;;;;;;4.70;3.90;;;;;;;8.34;72.40;99935.16;1642953;85;20157;-79
2022/09/19 04:27:45;;;;;;;5.93;4.83;;;;;;;8.34;72.12;99934.73;1637345;85;21091;-79
2022/09/19 04:30:32;;;;;;;7.10;5.00;;;;;;;8.35;72.15;99941.58;1642586;86;21091;-79
2022/09/19 04:33:18;;;;;;;6.78;4.90;;;;;;;8.36;72.17;99942.43;1639918;86;21445;-79
2022/09/19 04:36:05;;;;;;;5.75;5.00;;;;;;;8.37;72.21;99948.84;1639836;86;21117;-80
2022/09/19 04:38:52;;;;;;;7.90;5.62;;;;;;;8.36;72.23;99948.43;1620276;86;21590;-81
2022/09/19 04:41:37;;;;;;;;;;;;;;;8.37;72.28;99952.70;1649877;86;21040;-82
2022/09/19 04:44:28;;;;;;;;;;;;;;;8.41;72.65;99952.22;1641606;85;20471;-83
2022/09/19 04:47:10;;;;;;;6.35;4.87;;;;;;;8.42;72.68;99954.77;1641998;85;20161;-83
2022/09/19 04:49:56;;;;;;;6.40;5.28;;;;;;;8.44;72.41;99955.59;1617533;86;21096;-83
2022/09/19 04:52:41;;;;;;;7.83;6.03;;;;;;;8.46;72.39;99968.44;1632812;85;21122;-83
2022/09/19 04:55:27;;;;;;;10.28;6.58;;;;;;;8.48;72.42;99968.83;1638025;85;21504;-83
2022/09/19 04:58:15;;;;;;;7.58;6.35;;;;;;;8.49;72.39;99974.39;1638640;85;21127;-83
2022/09/19 05:00:59;;;;;;;9.30;7.03;;;;;;;8.49;72.43;99976.12;1641338;85;21572;-83
2022/09/19 05:03:44;;;;;;;8.43;7.00;;;;;;;8.48;72.48;99979.57;1640579;86;21104;-83
2022/09/19 05:06:29;;;;;;;8.70;7.80;;;;;;;8.49;72.53;99977.41;1634785;86;21577;-83
2022/09/19 05:09:14;;;;;;;9.68;7.67;;;;;;;8.51;72.58;99982.94;1623396;86;21080;-83
2022/09/19 05:12:01;;;;;;;13.78;8.88;;;;;;;8.50;72.55;99987.69;1620925;86;39704;-83
2022/09/19 05:14:46;;;;;;;10.80;9.43;;;;;;;8.51;72.59;99994.98;1623901;86;21088;-83
2022/09/19 05:17:32;;;;;;;12.07;9.05;;;;;;;8.50;72.63;99985.55;1623937;85;21589;-83
2022/09/19 05:20:17;;;;;;;10.48;9.28;;;;;;;8.54;72.69;99990.62;1623014;86;21063;-83
2022/09/19 05:23:02;;;;;;;11.73;8.15;;;;;;;8.56;72.68;99999.17;1638404;86;21060;-83
2022/09/19 05:25:47;;;;;;;9.08;8.00;;;;;;;8.59;72.74;99992.68;1647997;86;21098;-83
2022/09/19 05:28:32;;;;;;;11.18;8.00;;;;;;;8.63;72.71;99999.91;1645543;86;21568;-83
2022/09/19 05:31:18;;;;;;;8.93;7.90;;;;;;;8.61;72.76;99994.79;1632383;87;21608;-83
2022/09/19 05:34:04;;;;;;;9.50;7.75;;;;;;;8.62;72.81;99999.50;1647396;85;21067;-83
2022/09/19 05:36:51;;;;;;;9.03;7.62;;;;;;;8.62;72.89;99999.50;1619692;86;22338;-83
2022/09/19 05:39:35;;;;;;;;;;;;;;;8.60;72.86;100002.55;1605942;85;21651;-83
2022/09/19 05:42:20;;;;;;;10.85;7.60;;;;;;;8.61;73.28;100007.67;1602909;87;20292;-83
2022/09/19 05:45:07;;;;;;;10.60;8.45;;;;;;;8.61;72.95;100002.52;1581894;89;21036;-83
2022/09/19 05:47:51;;;;;;;;;;;;;;;8.60;72.98;100003.40;1627030;85;21079;-83
2022/09/19 05:50:36;;;;;;;8.83;7.90;;;;;;;8.65;73.36;100002.03;1631117;85;20230;-83
2022/09/19 05:56:25;;;;;;;10.10;8.90;;;;;;;8.68;73.08;100012.28;1642984;86;21127;-83
2022/09/19 05:59:10;;;;;;;11.48;9.20;;;;;;;8.74;73.24;100017.77;1629140;85;21066;-83
2022/09/19 06:01:56;;;;;;;9.15;7.72;;;;;;;8.77;73.15;100019.00;1641802;85;21484;-83
2022/09/19 06:04:40;;;;;;;9.98;8.98;;;;;;;8.80;73.22;100023.66;1641943;86;21134;-83
2022/09/19 06:07:25;;;;;;;11.97;9.28;;;;;;;8.80;73.21;100026.68;1642708;86;21068;-83
2022/09/19 06:10:12;;;;;;;9.95;9.00;;;;;;;8.79;73.21;100024.98;1626058;85;21439;-83
2022/09/19 06:12:57;;;;;;;12.58;9.25;;;;;;;8.84;73.33;100026.56;1626236;86;20988;-83
2022/09/19 06:15:42;;;;;;;10.00;9.05;;;;;;;8.88;73.32;100028.20;1639840;85;20992;-83
2022/09/19 06:18:28;;;;;;;9.60;8.33;;;;;;;8.89;73.29;100035.06;1634223;85;21531;-83
2022/09/19 06:21:15;;;;;;;10.35;9.13;;;;;;;8.90;73.34;100029.03;1634497;85;21012;-83
2022/09/19 06:24:01;;;;;;;11.10;8.95;;;;;;;8.92;73.39;100031.14;1646119;85;21550;-83
2022/09/19 06:26:46;;;;;;;9.45;8.43;;;;;;;8.93;73.48;100043.59;1648174;85;21092;-83
2022/09/19 06:29:31;;;;;;;12.68;8.75;;;;;;;8.91;73.41;100050.06;1634529;85;21071;-83
2022/09/19 06:32:18;;;;;;;8.70;7.90;;;;;;;8.93;73.43;100047.46;1629639;85;21508;-83
2022/09/19 06:35:03;;;;;;;;;;;;;;;8.93;73.40;100053.47;1643301;85;21127;-83
2022/09/19 06:37:48;;;;;;;9.77;8.57;;;;;;;8.94;73.74;100050.45;1648145;85;20185;-83
2022/09/19 06:40:36;;;;;;;10.40;8.30;;;;;;;8.97;73.47;100051.69;1644623;85;21067;-83
2022/09/19 06:43:21;;;;;;;10.60;8.38;;;;;;;8.94;73.50;100053.87;1634751;86;21135;-83
2022/09/19 06:46:09;;;;;;;11.43;8.98;;;;;;;8.94;73.57;100058.19;1648686;85;21564;-83
2022/09/19 06:48:53;;;;;;;;;;;;;;;8.94;73.63;100048.72;1640339;85;21045;-83
2022/09/19 06:51:38;;;;;;;8.48;7.60;;;;;;;8.94;73.93;100048.72;1647946;85;20228;-83
2022/09/19 06:54:23;;;;;;;8.65;7.30;;;;;;;8.95;73.70;100051.71;1640006;86;21697;-83
2022/09/19 06:57:08;;;;;;;9.43;8.53;;;;;;;9.01;73.75;100057.20;1637506;85;21771;-84
2022/09/19 06:59:53;;;;;;;11.00;7.90;;;;;;;9.08;73.77;100056.20;1640617;86;21112;-83
2022/09/19 07:02:38;;;;;;;8.25;7.50;;;;;;;9.11;73.79;100060.02;1646553;85;21503;-83
2022/09/19 07:05:23;;;;;;;9.65;7.90;;;;;;;9.18;73.85;100069.78;1638056;85;21130;-83
2022/09/19 07:08:11;;;;;;;9.15;8.25;;;;;;;9.21;73.86;100066.70;1636193;85;21103;-83
2022/09/19 07:10:57;;;;;;;8.55;7.75;;;;;;;9.22;73.82;100082.59;1622191;86;21006;-83
2022/09/19 07:13:43;;;;;;;7.92;7.22;;;;;;;9.23;73.85;100082.16;1583022;88;21077;-83
2022/09/19 07:16:27;;;;;;;8.65;7.87;;;;;;;9.24;73.87;100082.56;1588138;88;21061;-83
2022/09/19 07:19:13;;;;;;;8.78;7.97;;;;;;;9.25;73.88;100087.70;1596781;88;21089;-83
2022/09/19 07:21:58;;;;;;;9.13;8.33;;;;;;;9.27;73.91;100092.83;1591731;87;21045;-83
2022/09/19 07:24:43;;;;;;;9.83;7.65;;;;;;;9.27;73.91;100094.97;1589947;88;21066;-83
2022/09/19 07:27:30;;;;;;;8.45;7.30;;;;;;;9.27;73.94;100097.98;1587027;89;21545;-84
2022/09/19 07:30:15;;;;;;;;;;;;;;;9.26;73.94;100093.70;1625673;85;21085;-83
2022/09/19 07:33:04;;;;;;;7.80;7.10;;;;;;;9.27;74.24;100103.99;1630811;85;20606;-83
2022/09/19 07:35:51;;;;;;;8.08;7.28;;;;;;;9.26;74.05;100101.44;1627527;85;21087;-83
2022/09/19 07:38:35;;;;;;;;;;;;;;;9.27;74.08;100102.70;1631831;86;21131;-83
2022/09/19 07:41:20;;;;;;;7.05;6.33;;;;;;;9.32;74.39;100108.22;1619792;86;20291;-83
2022/09/19 07:44:05;;;;;;;6.60;6.03;;;;;;;9.35;74.09;100104.30;1640126;85;21696;-83
2022/09/19 07:49:55;;;;;;;6.50;5.95;;;;;;;9.37;74.19;100112.38;1631639;85;21128;-84
2022/09/19 07:52:41;;;;;;;7.17;6.55;;;;;;;9.42;74.23;100112.30;1643573;85;21073;-83
2022/09/19 07:55:28;;;;;;;5.78;5.15;;;;;;;9.46;74.25;100114.78;1630108;85;21423;-83
2022/09/19 07:58:13;;;;;;;6.50;5.97;;;;;;;9.49;74.20;100117.75;1624280;86;21087;-83
2022/09/19 08:01:02;;;;;;;5.87;5.37;;;;;;;9.51;74.25;100118.56;1638952;85;21135;-83
2022/09/19 08:03:48;;;;;;;5.87;5.22;;;;;;;9.57;74.31;100115.87;1630705;85;21012;-83
2022/09/19 08:06:33;;;;;;;7.25;5.67;;;;;;;9.61;74.26;100122.23;1637103;85;21076;-83
2022/09/19 08:09:18;;;;;;;5.97;5.47;;;;;;;9.68;74.32;100124.69;1639385;85;21612;-83
2022/09/19 08:12:06;;;;;;;7.12;6.47;;;;;;;9.73;74.36;100121.14;1638086;86;21249;-83
2022/09/19 08:14:51;;;;;;;6.50;5.78;;;;;;;9.77;74.33;100121.48;1627285;85;21059;-83
2022/09/19 08:17:36;;;;;;;6.75;6.12;;;;;;;9.80;74.35;100122.71;1640048;85;21103;-84
2022/09/19 08:20:22;;;;;;;5.33;4.83;;;;;;;9.81;74.40;100131.31;1636359;86;21059;-84
2022/09/19 08:23:11;;;;;;;5.65;5.08;;;;;;;9.84;74.44;100137.27;1640067;86;21636;-84
2022/09/19 08:25:55;;;;;;;4.50;4.17;;;;;;;9.90;74.47;100140.12;1642899;85;21981;-84
2022/09/19 08:28:40;;;;;;;4.55;4.15;;;;;;;9.95;74.49;100140.88;1651389;86;21094;-84
2022/09/19 08:31:26;;;;;;;4.22;3.92;;;;;;;10.04;74.55;100135.97;1646259;85;21524;-84
2022/09/19 08:34:11;;;;;;;4.42;4.03;;;;;;;10.12;74.55;100143.11;1636627;86;21142;-84
2022/09/19 08:37:00;;;;;;;3.92;3.55;;;;;;;10.20;74.57;100150.28;1648219;84;21505;-84
2022/09/19 08:40:15;;;;;;;3.92;3.58;;;;;;;10.23;74.54;100147.19;1646533;86;21110;-83
2022/09/19 08:42:35;;;;;;;;;;;;;;;10.24;74.55;100155.80;1652319;84;21503;-83
2022/09/19 08:45:40;;;;;;;3.30;3.00;;;;;;;10.31;74.91;100158.66;1647785;86;20148;-83
2022/09/19 08:48:29;;;;;;;3.47;3.17;;;;;;;10.34;74.62;100160.32;1650794;86;21131;-84
2022/09/19 08:51:32;;;;;;;3.27;3.08;;;;;;;10.40;74.63;100159.70;1648892;84;21122;-83
2022/09/19 08:54:23;;;;;;;2.80;2.60;;;;;;;10.43;74.61;100163.52;1650294;85;21067;-83
2022/09/19 08:57:28;;;;;;;2.80;2.60;;;;;;;10.46;74.66;100158.28;1649634;83;21554;-83
2022/09/19 09:00:20;;;;;;;3.27;3.08;;;;;;;10.50;74.61;100162.50;1650824;86;21051;-83
2022/09/19 09:03:09;;;;;;;2.90;2.70;;;;;;;10.55;74.68;100165.83;1640778;86;21123;-83
2022/09/19 09:06:24;;;;;;;2.72;2.52;;;;;;;10.65;74.69;100167.76;1620588;86;21102;-83
2022/09/19 09:09:32;;;;;;;2.58;2.37;;;;;;;10.70;74.70;100164.62;1599456;88;21143;-83
2022/09/19 09:12:55;;;;;;;2.50;2.30;;;;;;;10.74;74.72;100162.37;1583683;88;21100;-83
2022/09/19 09:16:15;;;;;;;2.10;2.00;;;;;;;10.81;74.67;100170.83;1593262;88;21081;-83
2022/09/19 09:19:28;;;;;;;2.25;2.05;;;;;;;10.86;74.69;100172.42;1593258;88;21731;-83
2022/09/19 09:22:26;;;;;;;2.70;2.50;;;;;;;10.98;74.72;100182.03;1590458;88;21152;-84
2022/09/19 09:25:19;;;;;;;2.45;2.25;;;;;;;11.03;74.73;100175.86;1599776;88;21117;-84
2022/09/19 09:28:27;;;;;;;2.52;2.33;;;;;;;11.12;74.75;100179.96;1584948;88;21428;-84
2022/09/19 09:31:26;;;;;;;2.12;2.02;;;;;;;11.17;74.77;100184.13;1584883;88;21646;-84
2022/09/19 09:34:28;;;;;;;1.77;1.67;;;;;;;11.23;74.73;100180.54;1582230;88;21586;-84
2022/09/19 09:37:36;;;;;;;1.92;1.82;;;;;;;11.28;74.74;100180.83;1583786;88;21143;-84
2022/09/19 09:44:13;;;;;;;2.08;1.60;;;;;;;11.35;74.70;100185.41;1637556;86;20981;-84
2022/09/19 09:47:24;;;;;;;1.67;1.57;;;;;;;11.32;74.67;100182.05;1646461;86;21003;-84
2022/09/19 09:50:22;;;;;;;1.80;1.70;;;;;;;11.36;74.76;100194.02;1646492;84;21174;-84
2022/09/19 09:53:19;;;;;;;1.72;1.62;;;;;;;11.38;74.77;100199.56;1645082;86;21142;-84
2022/09/19 09:56:24;;;;;;;1.40;1.30;;;;;;;11.39;74.76;100199.12;1646066;86;21079;-84
2022/09/19 10:03:34;;;;;;;1.47;1.37;;;;;;;11.42;74.78;100204.22;1649720;85;21154;-83
2022/09/19 10:06:30;;;;;;;1.82;1.55;;;;;;;11.44;74.79;100208.88;1650763;85;21551;-84
2022/09/19 10:09:23;;;;;;;1.75;1.65;;;;;;;11.45;74.83;100204.10;1625361;86;21071;-84
2022/09/19 10:12:21;;;;;;;1.60;1.50;;;;;;;11.47;74.83;100208.80;1645374;84;21075;-84
2022/09/19 10:15:12;;;;;;;1.57;1.47;;;;;;;11.48;74.83;100217.82;1652840;86;21074;-84
2022/09/19 10:18:07;;;;;;;1.52;1.42;;;;;;;11.50;74.82;100224.25;1639170;84;21111;-84
2022/09/19 10:20:54;;;;;;;1.98;1.87;;;;;;;11.48;74.84;100219.11;1637955;86;21067;-84
2022/09/19 10:23:49;;;;;;;1.67;1.57;;;;;;;11.51;74.83;100217.73;1635149;86;21531;-84
2022/09/19 10:26:32;;;;;;;1.55;1.45;;;;;;;11.52;74.84;100222.03;1635860;85;21135;-84
2022/09/19 10:29:22;;;;;;;1.95;1.62;;;;;;;11.57;74.89;100233.12;1633324;85;20999;-84
2022/09/19 10:32:08;;;;;;;1.60;1.47;;;;;;;11.64;74.89;100236.84;1628830;86;21130;-84
2022/09/19 10:34:54;;;;;;;1.60;1.50;;;;;;;11.70;74.89;100240.56;1633953;85;21107;-84
2022/09/19 10:37:40;;;;;;;1.62;1.52;;;;;;;11.76;74.88;100245.14;1628489;86;21139;-84
2022/09/19 10:40:27;;;;;;;2.22;1.67;;;;;;;11.83;74.89;100238.09;1634243;85;21508;-84
2022/09/19 10:43:32;;;;;;;2.08;1.90;;;;;;;11.88;74.88;100234.92;1613630;86;21647;-84
2022/09/19 10:46:21;;;;;;;1.90;1.40;;;;;;;11.92;74.89;100243.87;1640698;85;21103;-84
2022/09/19 10:49:22;;;;;;;1.60;1.50;;;;;;;11.95;74.88;100236.91;1628726;85;21714;-84
2022/09/19 10:52:06;;;;;;;1.72;1.52;;;;;;;12.03;74.87;100243.98;1629203;86;21071;-84
2022/09/19 10:54:53;;;;;;;1.65;1.50;;;;;;;12.07;74.81;100243.86;1631346;85;21067;-84
2022/09/19 10:57:48;;;;;;;1.90;1.77;;;;;;;12.10;74.84;100239.04;1633392;85;21178;-84
2022/09/19 11:00:51;;;;;;;6.90;1.75;;;;;;;12.17;74.88;100236.68;1635315;85;21079;-84
2022/09/19 11:03:39;;;;;;;2.25;1.85;;;;;;;12.24;74.84;100239.50;1629486;85;21063;-84
2022/09/19 11:06:23;;;;;;;1.45;1.35;;;;;;;12.32;74.90;100242.72;1636267;85;21155;-84
2022/09/19 11:09:14;;;;;;;1.47;1.37;;;;;;;12.47;74.91;100239.69;1630965;85;21098;-84
2022/09/19 11:12:10;;;;;;;1.77;1.67;;;;;;;12.66;74.97;100234.77;1646944;86;21146;-84
2022/09/19 11:14:55;;;;;;;1.62;1.52;;;;;;;12.82;74.87;100235.98;1642322;86;21503;-84
2022/09/19 11:18:04;;;;;;;1.75;1.65;;;;;;;12.91;74.69;100239.59;1640287;86;21142;-84
2022/09/19 11:21:07;;;;;;;1.72;1.37;;;;;;;12.94;74.71;100234.76;1638377;86;21080;-84
2022/09/19 11:24:04;;;;;;;1.17;1.15;;;;;;;13.04;74.77;100227.50;1643870;86;21100;-84
2022/09/19 11:27:14;;;;;;;3.15;1.15;;;;;;;13.13;74.64;100229.80;1643784;85;21111;-84
2022/09/19 11:30:19;;;;;;;1.35;1.10;;;;;;;13.16;74.67;100237.52;1635516;85;21105;-84
2022/09/19 11:33:34;;;;;;;2.47;1.63;;;;;;;13.20;74.66;100235.22;1630146;86;21095;-84
2022/09/19 11:36:49;;;;;;;0.90;0.90;;;;;;;13.31;74.58;100229.67;1637600;85;21428;-84
2022/09/19 11:39:55;;;;;;;1.30;0.82;;;;;;;13.44;74.64;100240.91;1601113;86;21179;-84
2022/09/19 11:43:15;;;;;;;1.00;0.90;;;;;;;13.54;74.56;100230.57;1639100;86;21551;-84
2022/09/19 11:46:23;;;;;;;0.78;0.70;;;;;;;13.69;74.57;100230.50;1640391;85;21066;-84
2022/09/19 11:49:31;;;;;;;1.12;1.02;;;;;;;13.79;74.41;100231.02;1644587;85;21115;-84
2022/09/19 11:52:45;;;;;;;1.25;0.90;;;;;;;13.87;74.41;100225.11;1638799;85;21115;-84
2022/09/19 11:55:43;;;;;;;1.22;0.82;;;;;;;13.89;74.25;100229.34;1642135;85;21091;-84
2022/09/19 11:58:57;;;;;;;1.70;1.10;;;;;;;13.95;74.23;100237.83;1637002;85;21529;-82
2022/09/19 12:01:56;;;;;;;1.10;1.00;;;;;;;13.98;74.23;100237.72;1644230;85;21120;-79
2022/09/19 12:05:19;;;;;;;2.15;0.80;;;;;;;14.01;74.19;100237.61;1642880;85;21071;-79
2022/09/19 12:08:45;;;;;;;1.10;1.00;;;;;;;14.08;74.14;100237.30;1640318;85;21085;-78
2022/09/19 12:11:42;;;;;;;1.23;0.80;;;;;;;14.17;74.18;100239.56;1432989;90;10000305;-78
2022/09/19 12:14:39;;;;;;;1.98;1.10;;;;;;;14.27;74.04;100240.53;1635135;85;21137;-78
2022/09/19 12:17:32;;;;;;;1.07;0.75;;;;;;;14.34;74.01;100232.90;1634080;85;21666;-78
2022/09/19 12:20:26;;;;;;;1.02;0.72;;;;;;;14.45;73.96;100239.88;1639731;85;21337;-78
2022/09/19 12:27:00;;;;;;;0.68;0.57;;;;;;;14.59;73.80;100236.27;1644831;85;21579;-78
2022/09/19 12:29:57;;;;;;;0.57;0.55;;;;;;;14.64;73.76;100229.59;1635228;86;21115;-78
2022/09/19 12:33:17;;;;;;;0.47;0.47;;;;;;;14.71;73.79;100225.39;1639008;85;21059;-79
2022/09/19 12:36:21;;;;;;;0.93;0.57;;;;;;;14.80;73.73;100221.13;1640026;85;21695;-77
2022/09/19 12:39:26;;;;;;;1.07;0.60;;;;;;;14.86;73.58;100223.94;1638463;85;21332;-81
2022/09/19 12:42:37;;;;;;;1.15;0.70;;;;;;;14.89;73.35;100218.61;1587117;86;21175;-81
2022/09/19 12:45:33;;;;;;;0.60;0.50;;;;;;;14.93;73.40;100221.48;1645739;85;21547;-81
2022/09/19 12:48:49;;;;;;;3.05;0.60;;;;;;;14.99;73.39;100231.66;1635320;85;28993;-81
2022/09/19 12:52:10;;;;;;;1.22;0.57;;;;;;;15.02;73.29;100230.69;1615128;86;21152;-81
2022/09/19 12:55:26;;;;;;;1.02;0.50;;;;;;;15.09;72.98;100229.04;1646576;85;21091;-81
2022/09/19 12:58:20;;;;;;;0.50;0.50;;;;;;;15.13;73.12;100233.22;1642281;85;21567;-81
2022/09/19 13:01:31;;;;;;;0.72;0.72;;;;;;;15.15;73.00;100230.55;1633976;85;21150;-81
2022/09/19 13:04:29;;;;;;;0.57;0.50;;;;;;;15.10;72.89;100239.00;1641722;85;21170;-81
2022/09/19 13:07:31;;;;;;;1.20;0.28;;;;;;;15.04;72.86;100239.28;1635176;85;22299;-81
2022/09/19 13:10:20;;;;;;;0.50;0.50;;;;;;;15.02;72.80;100238.49;1629765;85;21123;-81
2022/09/19 13:13:36;;;;;;;0.50;0.50;;;;;;;15.00;72.80;100240.31;1645588;85;21098;-81
2022/09/19 13:16:31;;;;;;;0.85;0.78;;;;;;;15.01;72.77;100242.86;1649469;85;21092;-81
2022/09/19 13:25:07;;;;;;;0.45;0.30;;;;;;;15.01;72.45;100240.25;1642579;85;21072;-80
2022/09/19 13:28:19;;;;;;;0.82;0.72;;;;;;;15.04;72.44;100241.88;1630609;86;21557;-85
2022/09/19 13:31:12;;;;;;;0.98;0.50;;;;;;;15.09;72.49;100246.42;1630506;86;21096;-85
2022/09/19 13:33:58;;;;;;;0.47;0.47;;;;;;;15.10;72.28;100248.12;1604065;86;21529;-85
2022/09/19 13:36:43;;;;;;;0.98;0.42;;;;;;;15.08;72.20;100246.87;1623320;87;21362;-79
2022/09/19 13:40:22;;;;;;;0.40;0.40;;;;;;;15.09;72.17;100248.58;1625507;87;21431;-78
2022/09/19 13:43:18;;;;;;;0.28;0.28;;;;;;;15.05;71.97;100254.84;1621078;85;21044;-78
2022/09/19 13:46:18;;;;;;;0.93;0.50;;;;;;;15.02;71.94;100245.00;1623941;85;21080;-78
2022/09/19 13:49:36;;;;;;;0.65;0.40;;;;;;;15.00;71.89;100252.88;1625072;85;21069;-77
2022/09/19 13:52:34;;;;;;;2.30;0.20;;;;;;;15.05;71.91;100287.39;1630962;87;21123;-78
2022/09/19 13:55:33;;;;;;;1.40;0.28;;;;;;;15.01;71.47;100323.58;1629598;87;21588;-78
2022/09/19 13:58:34;;;;;;;0.20;0.20;;;;;;;14.75;71.30;100337.58;1583760;89;22606;-78
2022/09/19 14:01:21;;;;;;;1.55;0.20;;;;;;;14.39;71.12;100348.03;1583330;89;21197;-78
2022/09/19 14:07:31;;;;;;;1.20;0.45;;;;;;;13.38;71.53;100344.14;1576174;89;21537;-81